Brinson, Georgia
Current Conditions -  °F | °C
As of 10:55 PM on Saturday 20 Dec 2014 (Local Time) from KBGE Reporting Station
Broken Clouds Broken Clouds  
Wind Chill: 59°   Ceiling: 4900
Heat Index: 59°   Visibility: 10mi
Dew Point: 55°   Wind: 9mph
Humidity: 88%   Direction: 50°NE
Pressure: 30.14"   Gusts: NA
Location:  30.98°N, 84.74°W
Report Text: KBGE 210355Z AUTO 05008KT 10SM BKN049 BKN060 BKN080 15/13 A3014 RMK AO2
Loading
Personal Weather Stations






























Interactive Weather Map New forecast layout! Learn more

10-Day Weather Forecast

Advertisements
Track Severe Weather on mobile